createdAt,value
2018-04-16T00:00:16.652Z,55.50
2018-04-16T00:00:38.711Z,56.10
2018-04-16T00:01:00.767Z,55.50
2018-04-16T00:01:23.587Z,55.50
2018-04-16T00:01:46.407Z,55.60
2018-04-16T00:02:08.473Z,55.50
2018-04-16T00:02:30.525Z,55.50
2018-04-16T00:02:52.598Z,55.60
2018-04-16T00:03:14.673Z,55.60
2018-04-16T00:03:37.514Z,55.60
2018-04-16T00:03:59.576Z,55.60
2018-04-16T00:04:21.640Z,55.60
2018-04-16T00:04:43.698Z,55.70
2018-04-16T00:05:05.782Z,55.70
2018-04-16T00:05:27.836Z,55.70
2018-04-16T00:05:49.927Z,55.70
2018-04-16T00:06:11.995Z,55.70
2018-04-16T00:06:34.103Z,55.70
2018-04-16T00:06:56.167Z,55.60
2018-04-16T00:07:18.215Z,55.70
2018-04-16T00:07:41.040Z,55.70
2018-04-16T00:08:03.862Z,55.70
2018-04-16T00:08:25.934Z,55.70
2018-04-16T00:08:48.005Z,55.70
2018-04-16T00:09:10.829Z,55.90
2018-04-16T00:09:32.889Z,55.70
2018-04-16T00:09:54.963Z,55.70
2018-04-16T00:10:17.042Z,55.60
2018-04-16T00:10:39.099Z,55.60
2018-04-16T00:11:01.150Z,55.60
2018-04-16T00:11:23.215Z,55.60
2018-04-16T00:11:45.278Z,55.60
2018-04-16T00:12:07.346Z,55.60
2018-04-16T00:12:29.428Z,55.60
2018-04-16T00:12:51.504Z,55.60
2018-04-16T00:13:13.561Z,55.60
2018-04-16T00:13:35.609Z,55.80
2018-04-16T00:13:57.654Z,55.80
2018-04-16T00:14:19.711Z,55.80
2018-04-16T00:14:41.763Z,55.80
2018-04-16T00:15:03.849Z,55.80
2018-04-16T00:15:25.898Z,55.80
2018-04-16T00:15:47.945Z,55.80
2018-04-16T00:16:10.015Z,55.80
2018-04-16T00:16:32.083Z,55.80
2018-04-16T00:16:54.135Z,55.70
2018-04-16T00:17:16.206Z,55.80
2018-04-16T00:17:38.251Z,55.80
2018-04-16T00:18:01.087Z,55.70
2018-04-16T00:18:23.933Z,55.70
2018-04-16T00:18:45.980Z,55.70
2018-04-16T00:19:08.041Z,55.70
2018-04-16T00:19:30.109Z,55.70
2018-04-16T00:19:52.167Z,55.70
2018-04-16T00:20:14.308Z,55.70
2018-04-16T00:20:37.127Z,55.70
2018-04-16T00:20:59.175Z,55.70
2018-04-16T00:21:21.235Z,55.70
2018-04-16T00:21:43.302Z,55.80
2018-04-16T00:22:05.355Z,55.80
2018-04-16T00:22:27.402Z,55.90
2018-04-16T00:22:49.457Z,55.90
2018-04-16T00:23:11.511Z,55.80
2018-04-16T00:23:33.587Z,55.90
2018-04-16T00:23:56.404Z,55.80
2018-04-16T00:24:19.234Z,55.30
2018-04-16T00:24:42.164Z,56.00
2018-04-16T00:25:04.220Z,55.80
2018-04-16T00:25:26.469Z,55.90
2018-04-16T00:25:49.193Z,55.90
2018-04-16T00:26:11.246Z,55.90
2018-04-16T00:26:33.296Z,55.80
2018-04-16T00:26:56.116Z,55.80
2018-04-16T00:27:18.955Z,55.90
2018-04-16T00:27:41.783Z,55.80
2018-04-16T00:28:03.837Z,55.70
2018-04-16T00:28:25.904Z,55.80
2018-04-16T00:28:47.963Z,55.70
2018-04-16T00:29:10.022Z,55.90
2018-04-16T00:29:32.079Z,55.70
2018-04-16T00:29:54.900Z,55.90
2018-04-16T00:30:17.008Z,55.70
2018-04-16T00:30:39.084Z,55.80
2018-04-16T00:31:01.157Z,55.80
2018-04-16T00:31:23.208Z,55.90
2018-04-16T00:31:50.976Z,55.80
2018-04-16T00:32:18.687Z,55.80
2018-04-16T00:32:47.029Z,55.80
2018-04-16T00:33:14.729Z,55.80
2018-04-16T00:33:42.275Z,55.80
2018-04-16T00:34:09.854Z,55.80
2018-04-16T00:34:37.517Z,55.70
2018-04-16T00:35:05.148Z,55.80
2018-04-16T00:35:32.703Z,55.90
2018-04-16T00:36:01.735Z,55.80
2018-04-16T00:36:29.232Z,55.70
2018-04-16T00:36:56.948Z,55.70
2018-04-16T00:37:24.632Z,55.80
2018-04-16T00:37:52.176Z,55.80
2018-04-16T00:38:19.725Z,55.80
2018-04-16T00:38:47.275Z,55.80
2018-04-16T00:39:14.929Z,55.80
2018-04-16T00:39:42.517Z,55.90
2018-04-16T00:40:10.061Z,55.50
2018-04-16T00:40:37.655Z,56.00
2018-04-16T00:41:05.196Z,56.10
2018-04-16T00:41:32.722Z,56.50
2018-04-16T00:42:00.320Z,56.10
2018-04-16T00:42:28.665Z,56.30
2018-04-16T00:42:56.204Z,56.20
2018-04-16T00:43:23.762Z,56.20
2018-04-16T00:43:52.126Z,56.40
2018-04-16T00:45:12.952Z,56.20
2018-04-16T00:45:40.719Z,56.30
2018-04-16T00:46:08.446Z,56.30
2018-04-16T00:46:36.728Z,56.40
2018-04-16T00:47:04.253Z,56.40
2018-04-16T00:47:32.517Z,56.40
2018-04-16T00:48:00.799Z,56.30
2018-04-16T00:48:28.354Z,56.30
2018-04-16T00:48:55.951Z,56.30
2018-04-16T00:49:23.458Z,56.20
2018-04-16T00:49:51.058Z,56.20
2018-04-16T00:50:19.339Z,56.10
2018-04-16T00:50:47.098Z,56.10
2018-04-16T00:51:14.601Z,56.10
2018-04-16T00:51:42.193Z,56.20
2018-04-16T00:52:09.713Z,56.20
2018-04-16T00:52:38.014Z,56.10
2018-04-16T00:53:05.652Z,56.10
2018-04-16T00:53:33.971Z,56.10
2018-04-16T00:54:01.509Z,56.10
2018-04-16T00:54:29.054Z,56.10
2018-04-16T00:54:56.699Z,56.10
2018-04-16T00:55:25.920Z,56.20
2018-04-16T00:55:54.365Z,56.10
2018-04-16T00:56:22.173Z,56.10
2018-04-16T00:56:49.888Z,56.10
2018-04-16T00:58:16.457Z,56.00
2018-04-16T00:58:44.049Z,56.10
2018-04-16T00:59:11.798Z,56.10
2018-04-16T00:59:40.093Z,56.30
2018-04-16T01:00:07.688Z,56.10
2018-04-16T01:00:35.164Z,56.10
2018-04-16T01:01:03.513Z,56.10
2018-04-16T01:01:31.031Z,56.10
2018-04-16T01:01:58.619Z,56.10
2018-04-16T01:02:26.874Z,56.10
2018-04-16T01:02:55.308Z,56.10
2018-04-16T01:03:22.869Z,56.70
2018-04-16T01:03:50.403Z,56.10
2018-04-16T01:04:18.035Z,56.10
2018-04-16T01:04:45.607Z,56.10
2018-04-16T01:05:13.147Z,56.10
2018-04-16T01:05:40.798Z,56.10
2018-04-16T01:06:08.498Z,56.10
2018-04-16T01:06:36.101Z,56.10
2018-04-16T01:07:03.703Z,56.10
2018-04-16T01:07:31.218Z,56.10
2018-04-16T01:07:59.580Z,56.10
2018-04-16T01:08:27.898Z,56.10
2018-04-16T01:08:55.524Z,56.00
2018-04-16T01:09:23.026Z,56.10
2018-04-16T01:09:51.372Z,56.10
2018-04-16T01:10:18.903Z,56.10
2018-04-16T01:10:46.485Z,56.10
2018-04-16T01:11:14.855Z,56.50
2018-04-16T01:11:43.191Z,56.10
2018-04-16T01:12:10.709Z,56.00
2018-04-16T01:12:38.291Z,56.00
2018-04-16T01:14:03.832Z,56.00
2018-04-16T01:14:31.346Z,56.10
2018-04-16T01:14:58.921Z,56.60
2018-04-16T01:15:26.429Z,56.10
2018-04-16T01:15:53.980Z,56.10
2018-04-16T01:16:21.556Z,56.10
2018-04-16T01:16:49.849Z,56.10
2018-04-16T01:17:17.372Z,56.00
2018-04-16T01:17:44.893Z,56.10
2018-04-16T01:18:13.243Z,56.10
2018-04-16T01:18:40.788Z,56.60
2018-04-16T01:19:08.331Z,56.00
2018-04-16T01:19:38.981Z,56.10
2018-04-16T01:20:07.287Z,56.10
2018-04-16T01:20:34.802Z,56.10
2018-04-16T01:21:02.407Z,56.10
2018-04-16T01:21:30.035Z,56.10
2018-04-16T01:21:57.555Z,56.10
2018-04-16T01:22:25.168Z,56.10
2018-04-16T01:22:53.545Z,56.00
2018-04-16T01:23:21.891Z,56.00
2018-04-16T01:23:49.423Z,56.10
2018-04-16T01:24:16.971Z,56.50
2018-04-16T01:24:44.532Z,56.10
2018-04-16T01:25:12.197Z,56.10
2018-04-16T01:25:40.541Z,56.10
2018-04-16T01:26:08.159Z,56.10
2018-04-16T01:26:35.754Z,56.10
2018-04-16T01:27:04.087Z,56.10
2018-04-16T01:27:31.635Z,56.10
2018-04-16T01:27:59.140Z,56.10
2018-04-16T01:28:26.719Z,56.10
2018-04-16T01:28:54.288Z,56.10
2018-04-16T01:29:21.817Z,56.10
2018-04-16T01:29:50.891Z,56.10
2018-04-16T01:30:18.557Z,56.10
2018-04-16T01:30:46.069Z,56.10
2018-04-16T01:31:13.645Z,56.10
2018-04-16T01:31:41.145Z,56.10
2018-04-16T01:32:08.736Z,56.10
2018-04-16T01:32:36.298Z,56.20
2018-04-16T01:33:04.619Z,56.20
2018-04-16T01:33:32.269Z,56.20
2018-04-16T01:33:59.936Z,56.10
2018-04-16T01:34:27.485Z,56.20
2018-04-16T01:34:55.164Z,56.10
2018-04-16T01:35:23.622Z,56.10
2018-04-16T01:35:51.972Z,56.10
2018-04-16T01:36:19.528Z,56.10
2018-04-16T01:36:47.894Z,55.70
2018-04-16T01:37:16.236Z,56.20
2018-04-16T01:37:43.716Z,56.20
2018-04-16T01:38:12.041Z,56.20
2018-04-16T01:38:39.612Z,56.20
2018-04-16T01:39:07.921Z,55.70
2018-04-16T01:39:35.522Z,56.20
2018-04-16T01:40:03.046Z,56.20
2018-04-16T01:40:30.599Z,56.30
2018-04-16T01:40:58.253Z,56.20
2018-04-16T01:41:25.887Z,56.20
2018-04-16T01:41:53.579Z,56.20
2018-04-16T01:42:21.900Z,56.30
2018-04-16T01:42:49.423Z,56.20
2018-04-16T01:44:09.796Z,56.00
2018-04-16T01:44:37.321Z,56.20
2018-04-16T01:45:04.940Z,56.20
2018-04-16T01:45:34.025Z,56.20
2018-04-16T01:46:01.512Z,56.30
2018-04-16T01:46:29.018Z,56.20
2018-04-16T01:46:57.353Z,56.30
2018-04-16T01:47:24.883Z,56.20
2018-04-16T01:47:52.391Z,56.30
2018-04-16T01:48:20.658Z,56.20
2018-04-16T01:48:48.179Z,56.20
2018-04-16T01:49:15.717Z,56.30
2018-04-16T01:49:43.239Z,56.30
2018-04-16T01:50:10.757Z,56.20
2018-04-16T01:50:38.455Z,56.40
2018-04-16T01:51:06.089Z,56.30
2018-04-16T01:51:33.612Z,56.30
2018-04-16T01:52:01.230Z,56.30
2018-04-16T01:52:28.852Z,56.30
2018-04-16T01:52:56.352Z,56.30
2018-04-16T01:53:23.865Z,56.30
2018-04-16T01:53:52.348Z,56.30
2018-04-16T01:54:20.063Z,56.30
2018-04-16T01:54:47.694Z,56.30
2018-04-16T01:55:15.278Z,56.30
2018-04-16T01:55:42.918Z,56.30
2018-04-16T01:56:11.191Z,56.30
2018-04-16T01:56:38.755Z,56.20
2018-04-16T01:57:06.494Z,56.30
2018-04-16T01:57:34.079Z,56.20
2018-04-16T01:58:01.636Z,56.20
2018-04-16T01:58:29.182Z,56.30
2018-04-16T01:58:56.735Z,56.30
2018-04-16T01:59:24.394Z,56.20
2018-04-16T01:59:51.955Z,56.30
2018-04-16T02:00:20.310Z,56.40
2018-04-16T02:00:48.642Z,56.30
2018-04-16T02:01:16.175Z,56.30
2018-04-16T02:01:43.746Z,56.20
2018-04-16T02:02:11.319Z,56.40
2018-04-16T02:02:39.643Z,56.40
2018-04-16T02:03:07.192Z,56.40
2018-04-16T02:03:34.716Z,56.30
2018-04-16T02:04:58.106Z,56.40
2018-04-16T02:05:25.636Z,56.40
2018-04-16T02:05:53.196Z,56.40
2018-04-16T02:06:20.755Z,56.40
2018-04-16T02:06:48.380Z,56.40
2018-04-16T02:07:16.159Z,56.40
2018-04-16T02:07:44.635Z,56.40
2018-04-16T02:08:12.992Z,56.40
2018-04-16T02:08:41.339Z,56.40
2018-04-16T02:09:08.994Z,56.40
2018-04-16T02:09:36.540Z,56.40
2018-04-16T02:10:04.196Z,56.40
2018-04-16T02:10:31.822Z,56.30
2018-04-16T02:10:59.295Z,56.40
2018-04-16T02:11:27.648Z,56.40
2018-04-16T02:11:55.380Z,56.30
2018-04-16T02:12:23.088Z,56.40
2018-04-16T02:13:47.252Z,56.30
2018-04-16T02:14:14.804Z,56.40
2018-04-16T02:14:42.317Z,56.40
2018-04-16T02:15:10.594Z,56.40
2018-04-16T02:15:38.864Z,56.40
2018-04-16T02:16:06.507Z,56.30
2018-04-16T02:16:34.840Z,56.40
2018-04-16T02:17:03.140Z,56.40
2018-04-16T02:17:30.700Z,56.40
2018-04-16T02:17:58.392Z,56.40
2018-04-16T02:18:25.936Z,56.40
2018-04-16T02:18:53.492Z,56.40
2018-04-16T02:20:19.175Z,56.30
2018-04-16T02:20:46.728Z,56.40
2018-04-16T02:21:14.300Z,56.40
2018-04-16T02:21:41.838Z,56.40
2018-04-16T02:22:10.951Z,56.50
2018-04-16T02:22:39.243Z,56.40
2018-04-16T02:23:06.881Z,56.40
2018-04-16T02:23:34.509Z,56.40
2018-04-16T02:24:02.839Z,56.50
2018-04-16T02:24:30.368Z,56.50
2018-04-16T02:24:58.000Z,56.50
2018-04-16T02:25:25.819Z,56.40
2018-04-16T02:25:54.140Z,56.40
2018-04-16T02:26:21.698Z,56.40
2018-04-16T02:26:49.252Z,56.40
2018-04-16T02:27:16.729Z,56.60
2018-04-16T02:27:44.549Z,56.40
2018-04-16T02:28:12.314Z,57.20
2018-04-16T02:28:40.652Z,56.50
2018-04-16T02:29:08.225Z,56.60
2018-04-16T02:29:36.720Z,56.60
2018-04-16T02:30:04.434Z,56.50
2018-04-16T02:30:32.084Z,56.50
2018-04-16T02:31:00.444Z,56.50
2018-04-16T02:31:28.086Z,56.40
2018-04-16T02:31:55.635Z,56.60
2018-04-16T02:32:23.196Z,56.50
2018-04-16T02:32:51.537Z,56.50
2018-04-16T02:33:19.084Z,56.60
2018-04-16T02:34:39.845Z,56.40
2018-04-16T02:35:07.343Z,56.50
2018-04-16T02:35:35.678Z,56.40
2018-04-16T02:36:03.217Z,56.40
2018-04-16T02:36:30.886Z,56.50
2018-04-16T02:36:58.547Z,56.60
2018-04-16T02:37:26.842Z,57.30
2018-04-16T02:37:54.435Z,56.50
2018-04-16T02:38:22.005Z,56.50
2018-04-16T02:38:50.349Z,56.60
2018-04-16T02:39:17.912Z,56.60
2018-04-16T02:39:45.485Z,56.60
2018-04-16T02:40:13.045Z,56.60
2018-04-16T02:40:40.531Z,56.60
2018-04-16T02:41:08.037Z,56.50
2018-04-16T02:41:35.565Z,56.40
2018-04-16T02:42:03.175Z,56.60
2018-04-16T02:42:30.848Z,56.40
2018-04-16T02:43:58.180Z,56.60
2018-04-16T02:44:26.496Z,56.40
2018-04-16T02:44:54.451Z,56.70
2018-04-16T02:45:22.205Z,56.60
2018-04-16T02:45:49.775Z,56.70
2018-04-16T02:46:17.332Z,57.30
2018-04-16T02:47:40.011Z,56.60
2018-04-16T02:48:07.570Z,56.70
2018-04-16T02:48:35.175Z,56.70
2018-04-16T02:49:02.705Z,56.70
2018-04-16T02:49:30.427Z,56.70
2018-04-16T02:49:58.097Z,56.70
2018-04-16T02:50:25.753Z,56.70
2018-04-16T02:50:53.400Z,56.70
2018-04-16T02:51:20.919Z,56.70
2018-04-16T02:51:48.500Z,56.70
2018-04-16T02:52:16.194Z,56.70
2018-04-16T02:52:43.792Z,56.70
2018-04-16T02:53:11.454Z,56.70
2018-04-16T02:53:39.782Z,56.70
2018-04-16T02:55:00.616Z,56.60
2018-04-16T02:55:28.953Z,57.30
2018-04-16T02:55:56.555Z,56.70
2018-04-16T02:56:24.144Z,56.70
2018-04-16T02:56:51.699Z,56.70
2018-04-16T02:57:19.210Z,56.60
2018-04-16T02:57:46.753Z,56.70
2018-04-16T02:58:14.343Z,56.70
2018-04-16T02:58:41.974Z,56.70
2018-04-16T02:59:09.550Z,56.70
2018-04-16T02:59:37.099Z,56.70
2018-04-16T03:00:05.445Z,57.20
2018-04-16T03:00:33.062Z,56.70
2018-04-16T03:01:00.619Z,56.70
2018-04-16T03:01:28.247Z,56.70
2018-04-16T03:01:55.754Z,56.70
2018-04-16T03:02:24.092Z,56.70
2018-04-16T03:02:51.616Z,56.70
2018-04-16T03:03:19.188Z,56.70
2018-04-16T03:03:46.774Z,56.70
2018-04-16T03:04:14.357Z,56.70
2018-04-16T03:04:42.035Z,56.70
2018-04-16T03:05:09.710Z,56.70
2018-04-16T03:05:38.036Z,56.70
2018-04-16T03:06:05.584Z,56.70
2018-04-16T03:06:33.129Z,56.70
2018-04-16T03:07:00.789Z,56.70
2018-04-16T03:07:28.395Z,56.70
2018-04-16T03:07:56.090Z,56.70
2018-04-16T03:08:23.784Z,56.70
2018-04-16T03:08:51.380Z,56.70
2018-04-16T03:09:18.928Z,56.70
2018-04-16T03:09:46.568Z,56.70
2018-04-16T03:10:14.260Z,56.70
2018-04-16T03:10:41.820Z,56.70
2018-04-16T03:11:09.490Z,56.70
2018-04-16T03:11:37.121Z,56.60
2018-04-16T03:12:04.755Z,56.70
2018-04-16T03:12:32.399Z,56.70
2018-04-16T03:13:00.011Z,56.70
2018-04-16T03:13:27.531Z,56.70
2018-04-16T03:13:55.097Z,56.70
2018-04-16T03:14:22.737Z,56.70
2018-04-16T03:14:50.280Z,56.70
2018-04-16T03:16:16.746Z,56.70
2018-04-16T03:16:45.066Z,56.70
2018-04-16T03:17:12.734Z,56.70
2018-04-16T03:17:40.289Z,56.70
2018-04-16T03:18:07.861Z,56.70
2018-04-16T03:18:35.372Z,56.60
2018-04-16T03:19:02.865Z,56.60
2018-04-16T03:19:30.413Z,56.70
2018-04-16T03:20:52.717Z,56.60
2018-04-16T03:21:21.063Z,56.70
2018-04-16T03:21:48.655Z,56.70
2018-04-16T03:22:16.156Z,56.70
2018-04-16T03:22:43.697Z,56.60
2018-04-16T03:23:11.254Z,56.60
2018-04-16T03:24:40.115Z,56.70
2018-04-16T03:25:07.856Z,56.60
2018-04-16T03:25:35.580Z,56.70
2018-04-16T03:26:03.817Z,56.70
2018-04-16T03:26:31.451Z,56.60
2018-04-16T03:26:59.745Z,56.70
2018-04-16T03:27:27.340Z,56.60
2018-04-16T03:27:55.052Z,56.60
2018-04-16T03:28:22.751Z,57.30
2018-04-16T03:28:50.259Z,56.60
2018-04-16T03:29:17.826Z,56.60
2018-04-16T03:29:45.517Z,56.60
2018-04-16T03:30:13.847Z,56.70
2018-04-16T03:30:41.409Z,56.60
2018-04-16T03:31:09.766Z,56.20
2018-04-16T03:31:37.305Z,56.60
2018-04-16T03:32:04.849Z,56.60
2018-04-16T03:32:32.368Z,56.60
2018-04-16T03:32:59.945Z,56.60
2018-04-16T03:33:27.494Z,56.60
2018-04-16T03:33:55.035Z,56.60
2018-04-16T03:34:22.587Z,56.70
2018-04-16T03:34:50.094Z,56.70
2018-04-16T03:35:17.584Z,56.60
2018-04-16T03:35:45.125Z,56.70
2018-04-16T03:36:12.617Z,56.60
2018-04-16T03:36:40.166Z,56.10
2018-04-16T03:37:07.878Z,56.60
2018-04-16T03:37:36.205Z,56.60
2018-04-16T03:38:03.732Z,56.60
2018-04-16T03:38:31.276Z,56.60
2018-04-16T03:38:58.796Z,56.60
2018-04-16T03:39:26.311Z,56.60
2018-04-16T03:39:53.882Z,56.60
2018-04-16T03:40:22.215Z,56.60
2018-04-16T03:40:49.733Z,56.60
2018-04-16T03:41:17.305Z,56.60
2018-04-16T03:42:38.838Z,56.50
2018-04-16T03:43:07.179Z,56.60
2018-04-16T03:43:34.726Z,56.60
2018-04-16T03:44:02.283Z,56.60
2018-04-16T03:44:29.971Z,56.60
2018-04-16T03:44:57.600Z,57.20
2018-04-16T03:45:26.037Z,56.60
2018-04-16T03:45:53.628Z,56.60
2018-04-16T03:46:21.149Z,56.60
2018-04-16T03:46:49.421Z,56.60
2018-04-16T03:47:17.648Z,56.60
2018-04-16T03:47:45.173Z,56.60
2018-04-16T03:48:12.690Z,56.60
2018-04-16T03:48:40.215Z,56.60
2018-04-16T03:49:08.551Z,56.60
2018-04-16T03:49:36.056Z,56.60
2018-04-16T03:51:00.928Z,56.50
2018-04-16T03:51:26.848Z,56.60
2018-04-16T03:52:48.351Z,56.50
2018-04-16T03:53:15.866Z,56.60
2018-04-16T03:53:48.671Z,56.60
2018-04-16T03:54:10.846Z,56.60
2018-04-16T03:54:32.904Z,56.60
2018-04-16T03:55:53.589Z,56.50
2018-04-16T03:56:15.655Z,56.60
2018-04-16T03:56:37.706Z,56.60
2018-04-16T03:57:00.531Z,56.60
2018-04-16T03:57:23.349Z,56.00
2018-04-16T03:57:45.437Z,56.60
2018-04-16T03:58:07.496Z,56.60
2018-04-16T03:58:29.553Z,56.60
2018-04-16T03:58:51.622Z,56.50
2018-04-16T03:59:15.188Z,56.60
2018-04-16T03:59:37.245Z,56.60
2018-04-16T03:59:59.305Z,56.60
2018-04-16T04:00:21.406Z,56.60
2018-04-16T04:00:43.463Z,56.60
2018-04-16T04:01:06.320Z,56.60
2018-04-16T04:01:28.367Z,56.60
2018-04-16T04:01:50.450Z,56.60
2018-04-16T04:02:12.504Z,56.60
2018-04-16T04:02:34.562Z,56.60
2018-04-16T04:02:57.496Z,56.60
2018-04-16T04:03:19.551Z,56.60
2018-04-16T04:03:41.599Z,56.10
2018-04-16T04:04:03.678Z,56.60
2018-04-16T04:04:25.745Z,56.60
2018-04-16T04:04:47.798Z,56.60
2018-04-16T04:05:10.621Z,56.60
2018-04-16T04:05:33.439Z,57.10
2018-04-16T04:05:55.489Z,56.60
2018-04-16T04:06:18.316Z,56.60
2018-04-16T04:06:41.131Z,56.60
2018-04-16T04:07:03.184Z,56.60
2018-04-16T04:07:25.242Z,56.60
2018-04-16T04:07:47.293Z,56.60
2018-04-16T04:08:09.354Z,56.60
2018-04-16T04:08:31.416Z,56.60
2018-04-16T04:08:53.466Z,56.60
2018-04-16T04:09:16.296Z,56.60
2018-04-16T04:09:39.193Z,56.60
2018-04-16T04:10:01.245Z,56.60
2018-04-16T04:10:24.159Z,56.60
2018-04-16T04:10:46.223Z,56.60
2018-04-16T04:11:08.327Z,56.60
2018-04-16T04:11:30.410Z,56.60
2018-04-16T04:11:52.462Z,56.60
2018-04-16T04:12:15.276Z,56.60
2018-04-16T04:12:37.322Z,56.60
2018-04-16T04:12:59.376Z,56.70
2018-04-16T04:13:21.436Z,56.70
2018-04-16T04:13:44.280Z,56.80
2018-04-16T04:14:07.103Z,56.70
2018-04-16T04:14:29.951Z,56.60
2018-04-16T04:14:52.770Z,56.60
2018-04-16T04:15:14.818Z,56.60
2018-04-16T04:15:36.875Z,56.60
2018-04-16T04:15:59.009Z,56.90
2018-04-16T04:16:21.109Z,56.70
2018-04-16T04:16:43.163Z,56.70
2018-04-16T04:17:05.993Z,56.70
2018-04-16T04:17:28.043Z,57.30
2018-04-16T04:17:50.108Z,56.80
2018-04-16T04:18:12.182Z,56.70
2018-04-16T04:18:34.240Z,56.70
2018-04-16T04:18:56.467Z,56.60
2018-04-16T04:19:18.549Z,56.60
2018-04-16T04:19:40.580Z,56.60
2018-04-16T04:20:02.651Z,56.50
2018-04-16T04:20:25.469Z,56.60
2018-04-16T04:20:47.539Z,56.60
2018-04-16T04:21:09.654Z,56.60
2018-04-16T04:21:31.712Z,56.60
2018-04-16T04:21:53.760Z,56.70
2018-04-16T04:22:16.592Z,56.70
2018-04-16T04:22:39.519Z,56.70
2018-04-16T04:23:02.347Z,56.70
2018-04-16T04:23:24.394Z,56.60
2018-04-16T04:23:46.447Z,56.70
2018-04-16T04:24:08.506Z,56.70
2018-04-16T04:24:31.314Z,56.70
2018-04-16T04:24:53.376Z,56.70
2018-04-16T04:25:15.472Z,56.70
2018-04-16T04:25:38.297Z,56.70
2018-04-16T04:26:00.365Z,56.70
2018-04-16T04:26:22.444Z,56.70
2018-04-16T04:26:45.275Z,57.00
2018-04-16T04:27:08.092Z,57.40
2018-04-16T04:27:30.144Z,56.90
2018-04-16T04:27:53.114Z,56.80
2018-04-16T04:28:15.198Z,56.70
2018-04-16T04:28:38.026Z,57.00
2018-04-16T04:29:00.852Z,56.90
2018-04-16T04:29:22.910Z,56.80
2018-04-16T04:29:44.974Z,57.00
2018-04-16T04:30:07.032Z,56.90
2018-04-16T04:30:29.100Z,57.00
2018-04-16T04:30:51.140Z,57.00
2018-04-16T04:31:13.969Z,56.40
2018-04-16T04:31:36.048Z,56.90
2018-04-16T04:31:58.107Z,57.00
2018-04-16T04:32:20.164Z,57.00
2018-04-16T04:32:42.241Z,57.50
2018-04-16T04:33:05.071Z,57.30
2018-04-16T04:33:27.134Z,57.00
2018-04-16T04:33:49.213Z,56.90
2018-04-16T04:34:11.255Z,56.90
2018-04-16T04:34:33.311Z,57.00
2018-04-16T04:34:55.381Z,57.00
2018-04-16T04:35:17.448Z,56.90
2018-04-16T04:35:39.501Z,57.00
2018-04-16T04:36:02.489Z,57.50
2018-04-16T04:36:24.656Z,56.90
2018-04-16T04:36:46.715Z,56.80
2018-04-16T04:37:08.810Z,56.90
2018-04-16T04:37:31.635Z,57.00
2018-04-16T04:37:54.461Z,57.00
2018-04-16T04:38:16.513Z,57.00
2018-04-16T04:38:38.566Z,57.10
2018-04-16T04:39:00.624Z,57.50
2018-04-16T04:39:23.464Z,57.00
2018-04-16T04:39:46.334Z,57.10
2018-04-16T04:40:09.208Z,57.00
2018-04-16T04:40:31.277Z,56.90
2018-04-16T04:40:53.327Z,57.00
2018-04-16T04:41:15.371Z,56.90
2018-04-16T04:41:37.435Z,56.90
2018-04-16T04:41:59.469Z,57.00
2018-04-16T04:42:21.515Z,57.60
2018-04-16T04:42:43.566Z,56.90
2018-04-16T04:43:05.620Z,57.00
2018-04-16T04:43:27.683Z,57.00
2018-04-16T04:43:50.656Z,57.00
2018-04-16T04:44:12.716Z,56.90
2018-04-16T04:44:34.787Z,56.90
2018-04-16T04:44:57.006Z,57.00
2018-04-16T04:45:19.126Z,56.90
2018-04-16T04:45:41.139Z,56.90
2018-04-16T04:46:03.258Z,56.90
2018-04-16T04:46:25.305Z,57.00
2018-04-16T04:46:47.365Z,57.00
2018-04-16T04:47:10.279Z,56.90
2018-04-16T04:47:32.331Z,56.90
2018-04-16T04:47:55.155Z,56.80
2018-04-16T04:48:17.974Z,56.90
2018-04-16T04:48:40.031Z,57.40
2018-04-16T04:49:02.078Z,56.90
2018-04-16T04:49:24.143Z,56.80
2018-04-16T04:49:46.967Z,56.90
2018-04-16T04:50:09.059Z,56.80
2018-04-16T04:50:31.165Z,56.80
2018-04-16T04:50:53.206Z,56.90
2018-04-16T04:51:15.263Z,56.90
2018-04-16T04:51:37.346Z,56.80
2018-04-16T04:52:00.176Z,56.80
2018-04-16T04:52:22.231Z,56.80
2018-04-16T04:52:44.297Z,56.70
2018-04-16T04:53:06.351Z,56.80
2018-04-16T04:53:29.166Z,56.80
2018-04-16T04:53:51.227Z,56.70
2018-04-16T04:54:13.280Z,56.80
2018-04-16T04:54:35.360Z,56.70
2018-04-16T04:54:57.432Z,56.80
2018-04-16T04:55:19.508Z,56.80
2018-04-16T04:55:41.585Z,56.80
2018-04-16T04:56:04.412Z,57.50
2018-04-16T04:56:26.475Z,56.80
2018-04-16T04:56:48.553Z,57.50
2018-04-16T04:57:11.457Z,57.40
2018-04-16T04:57:33.525Z,56.90
2018-04-16T04:57:56.346Z,56.80
2018-04-16T04:58:19.261Z,56.90
2018-04-16T04:58:41.320Z,57.50
2018-04-16T04:59:03.379Z,56.90
2018-04-16T04:59:25.443Z,56.90
2018-04-16T04:59:48.267Z,56.90
2018-04-16T05:00:10.477Z,56.80
2018-04-16T05:00:32.541Z,56.90
2018-04-16T05:00:54.672Z,56.90
2018-04-16T05:01:16.732Z,56.80
2018-04-16T05:01:38.839Z,56.90
2018-04-16T05:02:00.981Z,56.90
2018-04-16T05:02:23.794Z,57.30
2018-04-16T05:02:45.853Z,56.90
2018-04-16T05:03:07.927Z,56.80
2018-04-16T05:03:30.005Z,56.90
2018-04-16T05:03:52.061Z,56.90
2018-04-16T05:04:14.115Z,56.90
2018-04-16T05:04:37.078Z,57.00
2018-04-16T05:04:59.135Z,57.00
2018-04-16T05:05:21.182Z,56.90
2018-04-16T05:05:43.257Z,56.90
2018-04-16T05:06:05.323Z,56.90
2018-04-16T05:06:28.151Z,57.00
2018-04-16T05:06:51.016Z,56.90
2018-04-16T05:07:13.132Z,56.90
2018-04-16T05:07:35.192Z,57.00
2018-04-16T05:07:57.280Z,57.00
2018-04-16T05:08:19.331Z,57.00
2018-04-16T05:08:41.405Z,57.00
2018-04-16T05:09:03.453Z,57.00
2018-04-16T05:09:25.559Z,57.00
2018-04-16T05:09:47.636Z,57.00
2018-04-16T05:10:10.613Z,57.00
2018-04-16T05:10:32.758Z,57.00
2018-04-16T05:10:54.812Z,56.90
2018-04-16T05:11:17.634Z,57.10
2018-04-16T05:11:40.440Z,57.00
2018-04-16T05:12:02.487Z,57.00
2018-04-16T05:12:25.316Z,57.10
2018-04-16T05:12:48.144Z,57.10
2018-04-16T05:13:10.200Z,57.10
2018-04-16T05:13:32.254Z,57.10
2018-04-16T05:13:54.311Z,57.10
2018-04-16T05:14:17.123Z,57.10
2018-04-16T05:14:39.180Z,57.10
2018-04-16T05:15:01.430Z,57.10
2018-04-16T05:15:23.487Z,57.20
2018-04-16T05:15:45.568Z,57.10
2018-04-16T05:16:07.615Z,57.10
2018-04-16T05:16:29.675Z,57.10
2018-04-16T05:16:51.760Z,57.10
2018-04-16T05:17:13.816Z,57.10
2018-04-16T05:17:35.884Z,57.10
2018-04-16T05:17:57.952Z,57.10
2018-04-16T05:18:20.009Z,57.10
2018-04-16T05:18:42.063Z,57.00
2018-04-16T05:19:05.066Z,57.10
2018-04-16T05:19:27.115Z,57.10
2018-04-16T05:19:49.927Z,57.20
2018-04-16T05:20:11.979Z,57.20
2018-04-16T05:20:34.040Z,57.10
2018-04-16T05:20:56.111Z,57.10
2018-04-16T05:21:18.948Z,57.10
2018-04-16T05:21:41.037Z,57.10
2018-04-16T05:22:03.171Z,57.10
2018-04-16T05:22:26.001Z,57.20
2018-04-16T05:22:48.841Z,57.90
2018-04-16T05:23:11.655Z,57.30
2018-04-16T05:23:33.746Z,57.20
2018-04-16T05:23:55.801Z,57.20
2018-04-16T05:24:17.864Z,57.20
2018-04-16T05:24:39.915Z,57.30
2018-04-16T05:25:01.974Z,57.20
2018-04-16T05:25:24.799Z,57.20
2018-04-16T05:25:47.660Z,57.20
2018-04-16T05:26:09.713Z,57.20
2018-04-16T05:26:31.767Z,57.20
2018-04-16T05:26:54.625Z,57.20
2018-04-16T05:27:16.688Z,57.20
2018-04-16T05:27:38.754Z,57.20
2018-04-16T05:28:00.823Z,57.20
2018-04-16T05:28:22.916Z,57.20
2018-04-16T05:28:44.974Z,57.20
2018-04-16T05:29:07.038Z,57.20
2018-04-16T05:29:29.105Z,57.20
2018-04-16T05:29:51.160Z,57.30
2018-04-16T05:30:13.214Z,57.30
2018-04-16T05:30:35.277Z,57.20
2018-04-16T05:30:58.092Z,57.30
2018-04-16T05:31:20.179Z,57.20
2018-04-16T05:31:42.269Z,57.30
2018-04-16T05:32:04.342Z,57.30
2018-04-16T05:32:26.401Z,57.30
2018-04-16T05:32:48.485Z,57.30
2018-04-16T05:33:10.779Z,57.30
2018-04-16T05:33:32.832Z,57.30
2018-04-16T05:33:54.893Z,57.40
2018-04-16T05:34:16.952Z,57.30
2018-04-16T05:34:38.999Z,57.30
2018-04-16T05:35:01.813Z,57.30
2018-04-16T05:35:23.862Z,57.30
2018-04-16T05:35:45.928Z,57.30
2018-04-16T05:36:07.976Z,57.40
2018-04-16T05:36:30.821Z,57.40
2018-04-16T05:36:53.664Z,57.40
2018-04-16T05:37:15.731Z,57.30
2018-04-16T05:37:37.792Z,57.30
2018-04-16T05:38:00.623Z,57.30
2018-04-16T05:38:23.460Z,57.30
2018-04-16T05:38:46.276Z,57.40
2018-04-16T05:39:08.337Z,57.40
2018-04-16T05:39:30.391Z,56.80
2018-04-16T05:39:52.448Z,57.30
2018-04-16T05:40:15.244Z,57.30
2018-04-16T05:40:37.307Z,57.30